sensor_id;sensor_type;location;lat;lon;timestamp;P1;durP1;ratioP1;P2;durP2;ratioP2
37593;SDS011;23441;50.856;6.076;2023-03-03T00:01:10;46.30;;;22.67;;
37593;SDS011;23441;50.856;6.076;2023-03-03T00:03:36;45.37;;;23.10;;
37593;SDS011;23441;50.856;6.076;2023-03-03T00:06:02;49.57;;;23.40;;
37593;SDS011;23441;50.856;6.076;2023-03-03T00:08:29;53.93;;;24.03;;
37593;SDS011;23441;50.856;6.076;2023-03-03T00:10:56;45.87;;;23.97;;
37593;SDS011;23441;50.856;6.076;2023-03-03T00:13:25;48.90;;;24.60;;
37593;SDS011;23441;50.856;6.076;2023-03-03T00:15:51;51.83;;;25.70;;
37593;SDS011;23441;50.856;6.076;2023-03-03T00:20:53;54.90;;;24.67;;
37593;SDS011;23441;50.856;6.076;2023-03-03T00:26:07;51.33;;;25.30;;
37593;SDS011;23441;50.856;6.076;2023-03-03T00:31:20;53.70;;;25.60;;
37593;SDS011;23441;50.856;6.076;2023-03-03T00:33:51;51.27;;;25.40;;
37593;SDS011;23441;50.856;6.076;2023-03-03T00:36:27;50.17;;;25.57;;
37593;SDS011;23441;50.856;6.076;2023-03-03T00:39:11;53.87;;;26.90;;
37593;SDS011;23441;50.856;6.076;2023-03-03T00:41:53;56.07;;;27.43;;
37593;SDS011;23441;50.856;6.076;2023-03-03T00:46:54;56.00;;;26.00;;
37593;SDS011;23441;50.856;6.076;2023-03-03T00:49:22;57.63;;;28.27;;
37593;SDS011;23441;50.856;6.076;2023-03-03T00:51:50;55.27;;;26.87;;
37593;SDS011;23441;50.856;6.076;2023-03-03T00:54:17;52.93;;;26.43;;
37593;SDS011;23441;50.856;6.076;2023-03-03T00:56:43;50.23;;;25.80;;
37593;SDS011;23441;50.856;6.076;2023-03-03T00:59:09;47.47;;;24.77;;
37593;SDS011;23441;50.856;6.076;2023-03-03T01:01:34;51.50;;;26.30;;
37593;SDS011;23441;50.856;6.076;2023-03-03T01:04:00;58.00;;;26.80;;
37593;SDS011;23441;50.856;6.076;2023-03-03T01:06:26;53.47;;;26.33;;
37593;SDS011;23441;50.856;6.076;2023-03-03T01:08:52;55.77;;;27.03;;
37593;SDS011;23441;50.856;6.076;2023-03-03T01:11:22;56.53;;;28.23;;
37593;SDS011;23441;50.856;6.076;2023-03-03T01:13:50;57.80;;;26.07;;
37593;SDS011;23441;50.856;6.076;2023-03-03T01:16:17;58.73;;;28.07;;
37593;SDS011;23441;50.856;6.076;2023-03-03T01:18:43;67.80;;;30.60;;
37593;SDS011;23441;50.856;6.076;2023-03-03T01:21:10;63.87;;;29.30;;
37593;SDS011;23441;50.856;6.076;2023-03-03T01:23:35;62.83;;;28.63;;
37593;SDS011;23441;50.856;6.076;2023-03-03T01:26:01;71.40;;;29.73;;
37593;SDS011;23441;50.856;6.076;2023-03-03T01:28:27;62.80;;;29.83;;
37593;SDS011;23441;50.856;6.076;2023-03-03T01:30:53;68.47;;;30.67;;
37593;SDS011;23441;50.856;6.076;2023-03-03T01:33:19;64.30;;;30.87;;
37593;SDS011;23441;50.856;6.076;2023-03-03T01:35:45;70.13;;;32.67;;
37593;SDS011;23441;50.856;6.076;2023-03-03T01:38:12;72.40;;;32.83;;
37593;SDS011;23441;50.856;6.076;2023-03-03T01:40:39;72.87;;;34.03;;
37593;SDS011;23441;50.856;6.076;2023-03-03T01:43:05;79.03;;;32.13;;
37593;SDS011;23441;50.856;6.076;2023-03-03T01:45:40;76.73;;;34.17;;
37593;SDS011;23441;50.856;6.076;2023-03-03T01:51:42;83.90;;;35.27;;
37593;SDS011;23441;50.856;6.076;2023-03-03T01:54:20;79.20;;;34.30;;
37593;SDS011;23441;50.856;6.076;2023-03-03T01:57:02;84.60;;;36.93;;
37593;SDS011;23441;50.856;6.076;2023-03-03T01:59:32;83.83;;;36.80;;
37593;SDS011;23441;50.856;6.076;2023-03-03T02:02:00;83.67;;;37.63;;
37593;SDS011;23441;50.856;6.076;2023-03-03T02:04:26;111.53;;;40.43;;
37593;SDS011;23441;50.856;6.076;2023-03-03T02:06:57;105.10;;;42.00;;
37593;SDS011;23441;50.856;6.076;2023-03-03T02:17:48;129.07;;;45.83;;
37593;SDS011;23441;50.856;6.076;2023-03-03T02:25:47;105.97;;;40.37;;
37593;SDS011;23441;50.856;6.076;2023-03-03T02:28:20;124.70;;;45.33;;
37593;SDS011;23441;50.856;6.076;2023-03-03T02:30:46;131.47;;;47.10;;
37593;SDS011;23441;50.856;6.076;2023-03-03T02:33:12;128.03;;;47.10;;
37593;SDS011;23441;50.856;6.076;2023-03-03T02:35:38;126.23;;;45.47;;
37593;SDS011;23441;50.856;6.076;2023-03-03T02:40:42;163.23;;;48.50;;
37593;SDS011;23441;50.856;6.076;2023-03-03T02:43:12;160.60;;;49.67;;
37593;SDS011;23441;50.856;6.076;2023-03-03T02:45:43;156.43;;;50.00;;
37593;SDS011;23441;50.856;6.076;2023-03-03T02:48:09;158.60;;;51.00;;
37593;SDS011;23441;50.856;6.076;2023-03-03T02:50:35;158.23;;;51.00;;
37593;SDS011;23441;50.856;6.076;2023-03-03T02:53:01;162.07;;;52.90;;
37593;SDS011;23441;50.856;6.076;2023-03-03T02:55:27;175.10;;;56.40;;
37593;SDS011;23441;50.856;6.076;2023-03-03T02:57:53;175.63;;;55.23;;
37593;SDS011;23441;50.856;6.076;2023-03-03T03:00:18;185.20;;;57.47;;
37593;SDS011;23441;50.856;6.076;2023-03-03T03:02:45;182.13;;;57.77;;
37593;SDS011;23441;50.856;6.076;2023-03-03T03:05:11;177.30;;;53.23;;
37593;SDS011;23441;50.856;6.076;2023-03-03T03:07:36;199.33;;;57.27;;
37593;SDS011;23441;50.856;6.076;2023-03-03T03:10:02;183.37;;;58.23;;
37593;SDS011;23441;50.856;6.076;2023-03-03T03:12:28;198.53;;;61.07;;
37593;SDS011;23441;50.856;6.076;2023-03-03T03:14:53;191.73;;;58.83;;
37593;SDS011;23441;50.856;6.076;2023-03-03T03:17:19;201.20;;;59.93;;
37593;SDS011;23441;50.856;6.076;2023-03-03T03:19:45;198.27;;;60.30;;
37593;SDS011;23441;50.856;6.076;2023-03-03T03:22:10;192.63;;;56.17;;
37593;SDS011;23441;50.856;6.076;2023-03-03T03:24:36;196.97;;;57.67;;
37593;SDS011;23441;50.856;6.076;2023-03-03T03:27:01;211.53;;;61.10;;
37593;SDS011;23441;50.856;6.076;2023-03-03T03:29:27;203.53;;;59.13;;
37593;SDS011;23441;50.856;6.076;2023-03-03T03:31:53;222.83;;;61.63;;
37593;SDS011;23441;50.856;6.076;2023-03-03T03:34:18;189.60;;;57.90;;
37593;SDS011;23441;50.856;6.076;2023-03-03T03:36:44;214.27;;;59.77;;
37593;SDS011;23441;50.856;6.076;2023-03-03T03:39:11;211.03;;;61.53;;
37593;SDS011;23441;50.856;6.076;2023-03-03T03:41:36;206.93;;;58.97;;
37593;SDS011;23441;50.856;6.076;2023-03-03T03:44:02;202.83;;;56.90;;
37593;SDS011;23441;50.856;6.076;2023-03-03T03:46:28;212.23;;;60.73;;
37593;SDS011;23441;50.856;6.076;2023-03-03T03:48:53;214.50;;;61.10;;
37593;SDS011;23441;50.856;6.076;2023-03-03T03:51:19;212.17;;;61.87;;
37593;SDS011;23441;50.856;6.076;2023-03-03T03:53:45;214.53;;;60.03;;
37593;SDS011;23441;50.856;6.076;2023-03-03T03:56:10;210.33;;;58.97;;
37593;SDS011;23441;50.856;6.076;2023-03-03T03:58:36;201.67;;;60.17;;
37593;SDS011;23441;50.856;6.076;2023-03-03T04:01:03;203.13;;;59.67;;
37593;SDS011;23441;50.856;6.076;2023-03-03T04:03:29;205.10;;;59.00;;
37593;SDS011;23441;50.856;6.076;2023-03-03T04:05:55;207.70;;;60.43;;
37593;SDS011;23441;50.856;6.076;2023-03-03T04:08:21;198.90;;;59.60;;
37593;SDS011;23441;50.856;6.076;2023-03-03T04:10:46;196.87;;;57.70;;
37593;SDS011;23441;50.856;6.076;2023-03-03T04:13:12;203.03;;;56.97;;
37593;SDS011;23441;50.856;6.076;2023-03-03T04:15:37;220.73;;;61.07;;
37593;SDS011;23441;50.856;6.076;2023-03-03T04:18:03;210.90;;;58.93;;
37593;SDS011;23441;50.856;6.076;2023-03-03T04:20:29;202.83;;;57.53;;
37593;SDS011;23441;50.856;6.076;2023-03-03T04:22:54;221.57;;;60.87;;
37593;SDS011;23441;50.856;6.076;2023-03-03T04:25:21;222.20;;;61.27;;
37593;SDS011;23441;50.856;6.076;2023-03-03T04:27:46;220.30;;;63.40;;
37593;SDS011;23441;50.856;6.076;2023-03-03T04:30:13;213.00;;;60.87;;
37593;SDS011;23441;50.856;6.076;2023-03-03T04:32:40;223.37;;;61.17;;
37593;SDS011;23441;50.856;6.076;2023-03-03T04:35:06;227.10;;;59.37;;
37593;SDS011;23441;50.856;6.076;2023-03-03T04:37:32;230.03;;;59.60;;
37593;SDS011;23441;50.856;6.076;2023-03-03T04:39:58;215.20;;;61.53;;
37593;SDS011;23441;50.856;6.076;2023-03-03T04:42:25;211.37;;;58.60;;
37593;SDS011;23441;50.856;6.076;2023-03-03T04:44:52;213.47;;;60.93;;
37593;SDS011;23441;50.856;6.076;2023-03-03T04:47:17;214.80;;;60.30;;
37593;SDS011;23441;50.856;6.076;2023-03-03T04:49:43;209.87;;;59.50;;
37593;SDS011;23441;50.856;6.076;2023-03-03T04:52:09;207.30;;;60.23;;
37593;SDS011;23441;50.856;6.076;2023-03-03T04:54:34;208.57;;;60.33;;
37593;SDS011;23441;50.856;6.076;2023-03-03T04:57:00;215.27;;;62.27;;
37593;SDS011;23441;50.856;6.076;2023-03-03T04:59:25;202.27;;;58.77;;
37593;SDS011;23441;50.856;6.076;2023-03-03T05:01:51;216.43;;;62.40;;
37593;SDS011;23441;50.856;6.076;2023-03-03T05:04:17;200.13;;;58.70;;
37593;SDS011;23441;50.856;6.076;2023-03-03T05:06:42;205.03;;;61.13;;
37593;SDS011;23441;50.856;6.076;2023-03-03T05:09:08;196.73;;;57.93;;
37593;SDS011;23441;50.856;6.076;2023-03-03T05:11:34;195.10;;;60.10;;
37593;SDS011;23441;50.856;6.076;2023-03-03T05:13:59;190.87;;;59.10;;
37593;SDS011;23441;50.856;6.076;2023-03-03T05:16:27;191.17;;;58.67;;
37593;SDS011;23441;50.856;6.076;2023-03-03T05:18:52;211.10;;;60.73;;
37593;SDS011;23441;50.856;6.076;2023-03-03T05:21:18;200.77;;;61.03;;
37593;SDS011;23441;50.856;6.076;2023-03-03T05:23:44;192.73;;;59.90;;
37593;SDS011;23441;50.856;6.076;2023-03-03T05:26:10;193.30;;;59.90;;
37593;SDS011;23441;50.856;6.076;2023-03-03T05:28:35;175.90;;;58.13;;
37593;SDS011;23441;50.856;6.076;2023-03-03T05:31:01;175.77;;;54.73;;
37593;SDS011;23441;50.856;6.076;2023-03-03T05:33:27;185.83;;;58.23;;
37593;SDS011;23441;50.856;6.076;2023-03-03T05:35:53;180.03;;;56.20;;
37593;SDS011;23441;50.856;6.076;2023-03-03T05:38:20;174.33;;;56.63;;
37593;SDS011;23441;50.856;6.076;2023-03-03T05:40:45;177.00;;;57.80;;
37593;SDS011;23441;50.856;6.076;2023-03-03T05:43:11;170.60;;;55.63;;
37593;SDS011;23441;50.856;6.076;2023-03-03T05:45:37;167.37;;;54.20;;
37593;SDS011;23441;50.856;6.076;2023-03-03T05:48:02;165.87;;;53.37;;
37593;SDS011;23441;50.856;6.076;2023-03-03T05:50:29;169.70;;;53.37;;
37593;SDS011;23441;50.856;6.076;2023-03-03T05:52:54;169.13;;;54.87;;
37593;SDS011;23441;50.856;6.076;2023-03-03T05:55:20;167.87;;;53.40;;
37593;SDS011;23441;50.856;6.076;2023-03-03T05:57:46;178.07;;;54.37;;
37593;SDS011;23441;50.856;6.076;2023-03-03T06:00:12;163.57;;;54.67;;
37593;SDS011;23441;50.856;6.076;2023-03-03T06:02:39;174.27;;;53.77;;
37593;SDS011;23441;50.856;6.076;2023-03-03T06:05:06;171.57;;;52.70;;
37593;SDS011;23441;50.856;6.076;2023-03-03T06:07:32;159.70;;;54.90;;
37593;SDS011;23441;50.856;6.076;2023-03-03T06:09:58;161.53;;;53.17;;
37593;SDS011;23441;50.856;6.076;2023-03-03T06:12:24;159.43;;;52.80;;
37593;SDS011;23441;50.856;6.076;2023-03-03T06:14:49;157.73;;;53.43;;
37593;SDS011;23441;50.856;6.076;2023-03-03T06:17:15;158.87;;;52.63;;
37593;SDS011;23441;50.856;6.076;2023-03-03T06:19:41;161.87;;;52.03;;
37593;SDS011;23441;50.856;6.076;2023-03-03T06:22:06;178.13;;;55.27;;
37593;SDS011;23441;50.856;6.076;2023-03-03T06:24:32;168.20;;;52.33;;
37593;SDS011;23441;50.856;6.076;2023-03-03T06:26:58;164.50;;;53.33;;
37593;SDS011;23441;50.856;6.076;2023-03-03T06:29:25;166.83;;;53.30;;
37593;SDS011;23441;50.856;6.076;2023-03-03T06:31:52;152.40;;;52.57;;
37593;SDS011;23441;50.856;6.076;2023-03-03T06:34:17;156.63;;;52.13;;
37593;SDS011;23441;50.856;6.076;2023-03-03T06:36:43;177.73;;;54.77;;
37593;SDS011;23441;50.856;6.076;2023-03-03T06:39:09;163.10;;;53.23;;
37593;SDS011;23441;50.856;6.076;2023-03-03T06:41:35;170.47;;;55.47;;
37593;SDS011;23441;50.856;6.076;2023-03-03T06:44:01;171.37;;;55.70;;
37593;SDS011;23441;50.856;6.076;2023-03-03T06:46:27;170.23;;;56.77;;
37593;SDS011;23441;50.856;6.076;2023-03-03T06:48:53;166.50;;;53.47;;
37593;SDS011;23441;50.856;6.076;2023-03-03T06:53:56;159.90;;;53.40;;
37593;SDS011;23441;50.856;6.076;2023-03-03T06:56:24;163.93;;;53.20;;
37593;SDS011;23441;50.856;6.076;2023-03-03T06:58:53;165.77;;;53.23;;
37593;SDS011;23441;50.856;6.076;2023-03-03T07:01:22;151.07;;;51.93;;
37593;SDS011;23441;50.856;6.076;2023-03-03T07:03:47;165.97;;;55.83;;
37593;SDS011;23441;50.856;6.076;2023-03-03T07:06:23;162.70;;;53.23;;
37593;SDS011;23441;50.856;6.076;2023-03-03T07:08:53;157.23;;;52.37;;
37593;SDS011;23441;50.856;6.076;2023-03-03T07:11:22;161.87;;;53.70;;
37593;SDS011;23441;50.856;6.076;2023-03-03T07:13:51;173.60;;;53.93;;
37593;SDS011;23441;50.856;6.076;2023-03-03T07:16:19;171.83;;;56.27;;
37593;SDS011;23441;50.856;6.076;2023-03-03T07:18:54;165.07;;;53.77;;
37593;SDS011;23441;50.856;6.076;2023-03-03T07:21:35;178.80;;;56.60;;
37593;SDS011;23441;50.856;6.076;2023-03-03T07:26:45;188.00;;;57.03;;
37593;SDS011;23441;50.856;6.076;2023-03-03T07:29:23;181.70;;;58.07;;
37593;SDS011;23441;50.856;6.076;2023-03-03T07:31:51;187.10;;;57.00;;
37593;SDS011;23441;50.856;6.076;2023-03-03T07:34:24;162.90;;;53.10;;
37593;SDS011;23441;50.856;6.076;2023-03-03T07:37:03;176.27;;;54.83;;
37593;SDS011;23441;50.856;6.076;2023-03-03T07:39:37;183.67;;;54.80;;
37593;SDS011;23441;50.856;6.076;2023-03-03T07:42:14;185.50;;;55.97;;
37593;SDS011;23441;50.856;6.076;2023-03-03T07:44:43;177.30;;;56.43;;
37593;SDS011;23441;50.856;6.076;2023-03-03T07:47:18;185.87;;;55.50;;
37593;SDS011;23441;50.856;6.076;2023-03-03T07:49:47;161.43;;;52.87;;
37593;SDS011;23441;50.856;6.076;2023-03-03T07:54:50;185.00;;;54.37;;
37593;SDS011;23441;50.856;6.076;2023-03-03T07:57:22;175.40;;;54.03;;
37593;SDS011;23441;50.856;6.076;2023-03-03T08:02:42;170.47;;;53.20;;
37593;SDS011;23441;50.856;6.076;2023-03-03T08:08:05;171.30;;;54.70;;
37593;SDS011;23441;50.856;6.076;2023-03-03T08:13:08;170.73;;;52.90;;
37593;SDS011;23441;50.856;6.076;2023-03-03T08:15:44;169.07;;;51.10;;
37593;SDS011;23441;50.856;6.076;2023-03-03T08:18:21;178.23;;;53.90;;
37593;SDS011;23441;50.856;6.076;2023-03-03T08:21:12;156.87;;;48.83;;
37593;SDS011;23441;50.856;6.076;2023-03-03T08:23:43;169.53;;;53.03;;
37593;SDS011;23441;50.856;6.076;2023-03-03T08:26:09;166.77;;;51.80;;
37593;SDS011;23441;50.856;6.076;2023-03-03T08:28:36;170.60;;;49.67;;
37593;SDS011;23441;50.856;6.076;2023-03-03T08:31:02;160.07;;;50.07;;
37593;SDS011;23441;50.856;6.076;2023-03-03T08:33:28;162.30;;;50.40;;
37593;SDS011;23441;50.856;6.076;2023-03-03T08:35:53;150.77;;;48.37;;
37593;SDS011;23441;50.856;6.076;2023-03-03T08:38:19;161.53;;;50.47;;
37593;SDS011;23441;50.856;6.076;2023-03-03T08:40:46;157.07;;;50.83;;
37593;SDS011;23441;50.856;6.076;2023-03-03T08:43:13;171.07;;;52.83;;
37593;SDS011;23441;50.856;6.076;2023-03-03T08:45:46;173.43;;;50.23;;
37593;SDS011;23441;50.856;6.076;2023-03-03T08:48:13;169.70;;;54.00;;
37593;SDS011;23441;50.856;6.076;2023-03-03T08:50:39;170.90;;;51.37;;
37593;SDS011;23441;50.856;6.076;2023-03-03T08:53:06;152.20;;;49.80;;
37593;SDS011;23441;50.856;6.076;2023-03-03T08:55:32;164.87;;;51.93;;
37593;SDS011;23441;50.856;6.076;2023-03-03T08:57:58;172.97;;;52.57;;
37593;SDS011;23441;50.856;6.076;2023-03-03T09:00:24;168.90;;;52.93;;
37593;SDS011;23441;50.856;6.076;2023-03-03T09:02:51;162.07;;;50.53;;
37593;SDS011;23441;50.856;6.076;2023-03-03T09:05:17;160.53;;;50.60;;
37593;SDS011;23441;50.856;6.076;2023-03-03T09:07:44;165.60;;;50.87;;
37593;SDS011;23441;50.856;6.076;2023-03-03T09:10:11;169.93;;;53.57;;
37593;SDS011;23441;50.856;6.076;2023-03-03T09:12:39;166.70;;;51.37;;
37593;SDS011;23441;50.856;6.076;2023-03-03T09:15:12;159.67;;;52.10;;
37593;SDS011;23441;50.856;6.076;2023-03-03T09:17:47;153.97;;;49.23;;
37593;SDS011;23441;50.856;6.076;2023-03-03T09:28:58;145.40;;;46.13;;
37593;SDS011;23441;50.856;6.076;2023-03-03T09:31:52;148.30;;;46.27;;
37593;SDS011;23441;50.856;6.076;2023-03-03T09:34:29;148.73;;;47.57;;
37593;SDS011;23441;50.856;6.076;2023-03-03T09:39:51;147.90;;;47.93;;
37593;SDS011;23441;50.856;6.076;2023-03-03T09:47:40;148.73;;;48.63;;
37593;SDS011;23441;50.856;6.076;2023-03-03T10:04:24;139.20;;;46.17;;
37593;SDS011;23441;50.856;6.076;2023-03-03T10:18:01;132.87;;;42.50;;
37593;SDS011;23441;50.856;6.076;2023-03-03T10:54:55;142.20;;;45.40;;
37593;SDS011;23441;50.856;6.076;2023-03-03T10:57:36;150.50;;;49.20;;
37593;SDS011;23441;50.856;6.076;2023-03-03T11:00:14;146.93;;;46.97;;
37593;SDS011;23441;50.856;6.076;2023-03-03T11:02:53;142.27;;;47.07;;
37593;SDS011;23441;50.856;6.076;2023-03-03T11:08:16;144.67;;;44.83;;
37593;SDS011;23441;50.856;6.076;2023-03-03T11:11:13;133.17;;;43.80;;
37593;SDS011;23441;50.856;6.076;2023-03-03T11:19:39;144.63;;;47.37;;
37593;SDS011;23441;50.856;6.076;2023-03-03T11:25:13;143.70;;;45.57;;
37593;SDS011;23441;50.856;6.076;2023-03-03T11:33:44;138.80;;;45.13;;
37593;SDS011;23441;50.856;6.076;2023-03-03T11:38:55;119.60;;;42.23;;
37593;SDS011;23441;50.856;6.076;2023-03-03T11:52:43;129.70;;;41.63;;
37593;SDS011;23441;50.856;6.076;2023-03-03T11:55:14;130.40;;;44.13;;
37593;SDS011;23441;50.856;6.076;2023-03-03T12:00:46;132.93;;;44.87;;
37593;SDS011;23441;50.856;6.076;2023-03-03T12:16:55;130.50;;;44.63;;
37593;SDS011;23441;50.856;6.076;2023-03-03T12:19:34;133.17;;;44.60;;
37593;SDS011;23441;50.856;6.076;2023-03-03T12:25:08;131.77;;;45.90;;
37593;SDS011;23441;50.856;6.076;2023-03-03T12:27:42;140.27;;;47.90;;
37593;SDS011;23441;50.856;6.076;2023-03-03T12:35:41;129.90;;;45.50;;
37593;SDS011;23441;50.856;6.076;2023-03-03T12:41:26;134.87;;;47.10;;
37593;SDS011;23441;50.856;6.076;2023-03-03T12:43:49;139.13;;;45.67;;
37593;SDS011;23441;50.856;6.076;2023-03-03T12:46:34;131.13;;;47.53;;
37593;SDS011;23441;50.856;6.076;2023-03-03T12:49:10;130.07;;;46.50;;
37593;SDS011;23441;50.856;6.076;2023-03-03T13:05:20;132.93;;;48.50;;
37593;SDS011;23441;50.856;6.076;2023-03-03T13:08:09;136.83;;;47.43;;
37593;SDS011;23441;50.856;6.076;2023-03-03T13:16:34;138.10;;;50.47;;
37593;SDS011;23441;50.856;6.076;2023-03-03T13:19:10;138.77;;;51.33;;
37593;SDS011;23441;50.856;6.076;2023-03-03T13:21:41;144.70;;;52.17;;
37593;SDS011;23441;50.856;6.076;2023-03-03T13:27:19;136.03;;;50.13;;
37593;SDS011;23441;50.856;6.076;2023-03-03T13:29:55;142.77;;;51.43;;
37593;SDS011;23441;50.856;6.076;2023-03-03T13:32:34;127.23;;;47.70;;
37593;SDS011;23441;50.856;6.076;2023-03-03T13:35:14;120.47;;;45.17;;
37593;SDS011;23441;50.856;6.076;2023-03-03T13:37:48;124.37;;;44.83;;
37593;SDS011;23441;50.856;6.076;2023-03-03T13:40:20;123.00;;;44.77;;
37593;SDS011;23441;50.856;6.076;2023-03-03T13:42:55;114.97;;;44.33;;
37593;SDS011;23441;50.856;6.076;2023-03-03T13:50:59;119.00;;;44.03;;
37593;SDS011;23441;50.856;6.076;2023-03-03T13:53:50;126.15;;;46.10;;
37593;SDS011;23441;50.856;6.076;2023-03-03T14:05:14;107.03;;;40.60;;
37593;SDS011;23441;50.856;6.076;2023-03-03T14:08:05;101.68;;;39.45;;
37593;SDS011;23441;50.856;6.076;2023-03-03T14:10:45;90.87;;;36.27;;
37593;SDS011;23441;50.856;6.076;2023-03-03T14:13:32;88.03;;;33.77;;
37593;SDS011;23441;50.856;6.076;2023-03-03T14:16:56;87.73;;;33.33;;
37593;SDS011;23441;50.856;6.076;2023-03-03T14:19:02;84.13;;;32.53;;
37593;SDS011;23441;50.856;6.076;2023-03-03T14:21:52;85.15;;;32.53;;
37593;SDS011;23441;50.856;6.076;2023-03-03T14:27:53;90.00;;;33.72;;
37593;SDS011;23441;50.856;6.076;2023-03-03T14:33:02;81.90;;;33.75;;
37593;SDS011;23441;50.856;6.076;2023-03-03T14:35:49;83.80;;;33.85;;
37593;SDS011;23441;50.856;6.076;2023-03-03T14:41:33;78.07;;;30.77;;
37593;SDS011;23441;50.856;6.076;2023-03-03T14:47:01;72.25;;;28.35;;
37593;SDS011;23441;50.856;6.076;2023-03-03T14:49:33;75.85;;;29.25;;
37593;SDS011;23441;50.856;6.076;2023-03-03T14:52:02;73.57;;;29.45;;
37593;SDS011;23441;50.856;6.076;2023-03-03T14:54:43;70.57;;;27.27;;
37593;SDS011;23441;50.856;6.076;2023-03-03T15:05:26;61.53;;;23.95;;
37593;SDS011;23441;50.856;6.076;2023-03-03T15:07:57;56.50;;;21.93;;
37593;SDS011;23441;50.856;6.076;2023-03-03T15:10:36;49.60;;;20.73;;
37593;SDS011;23441;50.856;6.076;2023-03-03T15:13:08;50.38;;;20.85;;
37593;SDS011;23441;50.856;6.076;2023-03-03T15:16:00;51.25;;;20.65;;
37593;SDS011;23441;50.856;6.076;2023-03-03T15:18:30;54.42;;;20.70;;
37593;SDS011;23441;50.856;6.076;2023-03-03T15:40:34;46.17;;;18.90;;
37593;SDS011;23441;50.856;6.076;2023-03-03T15:43:34;42.25;;;17.05;;
37593;SDS011;23441;50.856;6.076;2023-03-03T16:04:04;44.70;;;17.02;;
37593;SDS011;23441;50.856;6.076;2023-03-03T16:12:11;48.13;;;18.63;;
37593;SDS011;23441;50.856;6.076;2023-03-03T16:15:16;45.95;;;16.98;;
37593;SDS011;23441;50.856;6.076;2023-03-03T16:21:02;42.15;;;16.90;;
37593;SDS011;23441;50.856;6.076;2023-03-03T16:26:31;44.80;;;17.52;;
37593;SDS011;23441;50.856;6.076;2023-03-03T16:42:37;44.88;;;16.98;;
37593;SDS011;23441;50.856;6.076;2023-03-03T16:56:05;44.85;;;19.60;;
37593;SDS011;23441;50.856;6.076;2023-03-03T17:01:35;42.03;;;16.63;;
37593;SDS011;23441;50.856;6.076;2023-03-03T17:07:47;124.82;;;45.05;;
37593;SDS011;23441;50.856;6.076;2023-03-03T17:09:59;94.07;;;35.87;;
37593;SDS011;23441;50.856;6.076;2023-03-03T17:12:51;105.50;;;46.00;;
37593;SDS011;23441;50.856;6.076;2023-03-03T17:15:37;92.25;;;41.95;;
37593;SDS011;23441;50.856;6.076;2023-03-03T17:18:43;65.37;;;27.33;;
37593;SDS011;23441;50.856;6.076;2023-03-03T17:24:28;50.63;;;21.52;;
37593;SDS011;23441;50.856;6.076;2023-03-03T17:29:35;43.60;;;19.40;;
37593;SDS011;23441;50.856;6.076;2023-03-03T17:32:21;50.90;;;21.50;;
37593;SDS011;23441;50.856;6.076;2023-03-03T17:37:46;50.00;;;20.70;;
37593;SDS011;23441;50.856;6.076;2023-03-03T17:43:43;44.03;;;21.07;;
37593;SDS011;23441;50.856;6.076;2023-03-03T17:51:53;43.20;;;17.80;;
37593;SDS011;23441;50.856;6.076;2023-03-03T18:03:03;47.70;;;18.60;;
37593;SDS011;23441;50.856;6.076;2023-03-03T18:11:13;52.67;;;19.57;;
37593;SDS011;23441;50.856;6.076;2023-03-03T18:21:37;69.70;;;29.27;;
37593;SDS011;23441;50.856;6.076;2023-03-03T18:24:35;84.20;;;32.07;;
37593;SDS011;23441;50.856;6.076;2023-03-03T18:27:11;72.53;;;29.90;;
37593;SDS011;23441;50.856;6.076;2023-03-03T18:29:37;68.67;;;28.97;;
37593;SDS011;23441;50.856;6.076;2023-03-03T18:32:15;74.97;;;34.07;;
37593;SDS011;23441;50.856;6.076;2023-03-03T18:34:43;84.87;;;34.70;;
37593;SDS011;23441;50.856;6.076;2023-03-03T18:39:45;69.20;;;32.10;;
37593;SDS011;23441;50.856;6.076;2023-03-03T18:44:41;66.63;;;26.40;;
37593;SDS011;23441;50.856;6.076;2023-03-03T18:47:08;63.10;;;30.30;;
37593;SDS011;23441;50.856;6.076;2023-03-03T18:52:31;70.93;;;31.00;;
37593;SDS011;23441;50.856;6.076;2023-03-03T18:55:02;65.87;;;32.10;;
37593;SDS011;23441;50.856;6.076;2023-03-03T18:57:37;73.97;;;31.10;;
37593;SDS011;23441;50.856;6.076;2023-03-03T19:00:10;66.30;;;26.17;;
37593;SDS011;23441;50.856;6.076;2023-03-03T19:02:40;61.00;;;25.70;;
37593;SDS011;23441;50.856;6.076;2023-03-03T19:05:17;60.90;;;25.37;;
37593;SDS011;23441;50.856;6.076;2023-03-03T19:07:47;61.17;;;25.70;;
37593;SDS011;23441;50.856;6.076;2023-03-03T19:12:48;56.80;;;24.33;;
37593;SDS011;23441;50.856;6.076;2023-03-03T19:18:00;71.07;;;30.37;;
37593;SDS011;23441;50.856;6.076;2023-03-03T19:20:36;81.70;;;31.03;;
37593;SDS011;23441;50.856;6.076;2023-03-03T19:23:06;72.33;;;29.47;;
37593;SDS011;23441;50.856;6.076;2023-03-03T19:25:37;64.83;;;28.80;;
37593;SDS011;23441;50.856;6.076;2023-03-03T19:31:55;63.67;;;29.07;;
37593;SDS011;23441;50.856;6.076;2023-03-03T19:40:20;71.40;;;29.53;;
37593;SDS011;23441;50.856;6.076;2023-03-03T19:50:42;74.70;;;33.67;;
37593;SDS011;23441;50.856;6.076;2023-03-03T19:56:10;73.57;;;28.63;;
37593;SDS011;23441;50.856;6.076;2023-03-03T19:58:45;67.67;;;26.97;;
37593;SDS011;23441;50.856;6.076;2023-03-03T20:04:11;73.63;;;28.73;;
37593;SDS011;23441;50.856;6.076;2023-03-03T20:07:00;78.77;;;28.43;;
37593;SDS011;23441;50.856;6.076;2023-03-03T20:24:04;77.70;;;29.53;;
37593;SDS011;23441;50.856;6.076;2023-03-03T20:29:49;70.70;;;28.57;;
37593;SDS011;23441;50.856;6.076;2023-03-03T20:32:39;76.13;;;28.57;;
37593;SDS011;23441;50.856;6.076;2023-03-03T20:51:35;88.17;;;32.47;;
37593;SDS011;23441;50.856;6.076;2023-03-03T20:54:37;91.30;;;34.97;;
37593;SDS011;23441;50.856;6.076;2023-03-03T20:57:19;146.73;;;54.53;;
37593;SDS011;23441;50.856;6.076;2023-03-03T20:59:59;129.33;;;47.83;;
37593;SDS011;23441;50.856;6.076;2023-03-03T21:02:38;113.07;;;42.13;;
37593;SDS011;23441;50.856;6.076;2023-03-03T21:05:16;81.90;;;34.17;;
37593;SDS011;23441;50.856;6.076;2023-03-03T21:07:56;87.57;;;31.13;;
37593;SDS011;23441;50.856;6.076;2023-03-03T21:10:27;80.17;;;30.43;;
37593;SDS011;23441;50.856;6.076;2023-03-03T21:16:02;75.83;;;30.53;;
37593;SDS011;23441;50.856;6.076;2023-03-03T21:18:55;68.43;;;29.03;;
37593;SDS011;23441;50.856;6.076;2023-03-03T21:21:30;79.90;;;31.13;;
37593;SDS011;23441;50.856;6.076;2023-03-03T21:23:58;82.47;;;31.03;;
37593;SDS011;23441;50.856;6.076;2023-03-03T21:34:38;83.03;;;31.20;;
37593;SDS011;23441;50.856;6.076;2023-03-03T21:37:08;93.80;;;34.33;;
37593;SDS011;23441;50.856;6.076;2023-03-03T21:39:37;87.13;;;31.80;;
37593;SDS011;23441;50.856;6.076;2023-03-03T21:42:11;91.17;;;34.30;;
37593;SDS011;23441;50.856;6.076;2023-03-03T21:44:40;95.10;;;35.43;;
37593;SDS011;23441;50.856;6.076;2023-03-03T21:47:14;89.40;;;33.27;;
37593;SDS011;23441;50.856;6.076;2023-03-03T21:49:45;82.20;;;31.37;;
37593;SDS011;23441;50.856;6.076;2023-03-03T21:52:12;90.33;;;32.87;;
37593;SDS011;23441;50.856;6.076;2023-03-03T21:54:40;79.77;;;29.37;;
37593;SDS011;23441;50.856;6.076;2023-03-03T21:57:15;82.37;;;29.77;;